sensor_id;sensor_type;location;lat;lon;timestamp;temperature;humidity
19088;DHT22;9676;50.916;13.352;2023-02-24T00:00:19;12.70;92.30
19088;DHT22;9676;50.916;13.352;2023-02-24T00:03:25;12.70;92.30
19088;DHT22;9676;50.916;13.352;2023-02-24T00:06:14;12.70;92.20
19088;DHT22;9676;50.916;13.352;2023-02-24T00:09:07;12.70;92.20
19088;DHT22;9676;50.916;13.352;2023-02-24T00:11:59;12.70;92.50
19088;DHT22;9676;50.916;13.352;2023-02-24T00:14:49;12.70;92.20
19088;DHT22;9676;50.916;13.352;2023-02-24T00:17:39;12.70;92.00
19088;DHT22;9676;50.916;13.352;2023-02-24T00:20:28;12.70;92.00
19088;DHT22;9676;50.916;13.352;2023-02-24T00:23:20;12.60;92.00
19088;DHT22;9676;50.916;13.352;2023-02-24T00:26:13;12.60;92.00
19088;DHT22;9676;50.916;13.352;2023-02-24T00:29:04;12.60;92.30
19088;DHT22;9676;50.916;13.352;2023-02-24T00:31:56;12.60;92.20
19088;DHT22;9676;50.916;13.352;2023-02-24T00:34:48;12.60;92.30
19088;DHT22;9676;50.916;13.352;2023-02-24T00:37:37;12.60;92.30
19088;DHT22;9676;50.916;13.352;2023-02-24T00:40:26;12.60;92.40
19088;DHT22;9676;50.916;13.352;2023-02-24T00:43:20;12.60;92.40
19088;DHT22;9676;50.916;13.352;2023-02-24T00:46:10;12.60;92.60
19088;DHT22;9676;50.916;13.352;2023-02-24T00:48:59;12.50;92.30
19088;DHT22;9676;50.916;13.352;2023-02-24T00:51:52;12.50;92.10
19088;DHT22;9676;50.916;13.352;2023-02-24T00:54:43;12.50;92.00
19088;DHT22;9676;50.916;13.352;2023-02-24T00:57:33;12.40;91.90
19088;DHT22;9676;50.916;13.352;2023-02-24T01:00:24;12.40;91.80
19088;DHT22;9676;50.916;13.352;2023-02-24T01:03:15;12.40;92.40
19088;DHT22;9676;50.916;13.352;2023-02-24T01:06:05;12.30;91.80
19088;DHT22;9676;50.916;13.352;2023-02-24T01:08:55;12.30;91.90
19088;DHT22;9676;50.916;13.352;2023-02-24T01:11:48;12.30;91.90
19088;DHT22;9676;50.916;13.352;2023-02-24T01:15:10;12.20;92.10
19088;DHT22;9676;50.916;13.352;2023-02-24T01:18:01;12.20;92.00
19088;DHT22;9676;50.916;13.352;2023-02-24T01:20:51;12.20;92.30
19088;DHT22;9676;50.916;13.352;2023-02-24T01:23:40;12.20;92.10
19088;DHT22;9676;50.916;13.352;2023-02-24T01:26:30;12.20;92.20
19088;DHT22;9676;50.916;13.352;2023-02-24T01:29:20;12.20;92.30
19088;DHT22;9676;50.916;13.352;2023-02-24T01:32:13;12.20;92.40
19088;DHT22;9676;50.916;13.352;2023-02-24T01:35:08;12.20;92.90
19088;DHT22;9676;50.916;13.352;2023-02-24T01:37:59;12.20;92.80
19088;DHT22;9676;50.916;13.352;2023-02-24T01:40:55;12.10;92.40
19088;DHT22;9676;50.916;13.352;2023-02-24T01:43:56;12.10;93.40
19088;DHT22;9676;50.916;13.352;2023-02-24T01:46:50;12.10;93.40
19088;DHT22;9676;50.916;13.352;2023-02-24T01:49:43;12.10;92.70
19088;DHT22;9676;50.916;13.352;2023-02-24T01:52:35;12.10;92.80
19088;DHT22;9676;50.916;13.352;2023-02-24T01:55:29;12.10;92.90
19088;DHT22;9676;50.916;13.352;2023-02-24T01:58:25;12.00;92.90
19088;DHT22;9676;50.916;13.352;2023-02-24T02:01:17;12.00;92.90
19088;DHT22;9676;50.916;13.352;2023-02-24T02:04:13;12.00;92.70
19088;DHT22;9676;50.916;13.352;2023-02-24T02:07:06;12.00;92.90
19088;DHT22;9676;50.916;13.352;2023-02-24T02:09:59;12.00;92.50
19088;DHT22;9676;50.916;13.352;2023-02-24T02:12:50;12.00;92.60
19088;DHT22;9676;50.916;13.352;2023-02-24T02:15:47;12.00;92.30
19088;DHT22;9676;50.916;13.352;2023-02-24T02:18:51;12.00;92.70
19088;DHT22;9676;50.916;13.352;2023-02-24T02:22:03;11.90;92.80
19088;DHT22;9676;50.916;13.352;2023-02-24T02:24:58;11.90;93.10
19088;DHT22;9676;50.916;13.352;2023-02-24T02:28:11;11.90;92.40
19088;DHT22;9676;50.916;13.352;2023-02-24T02:31:42;11.90;92.90
19088;DHT22;9676;50.916;13.352;2023-02-24T02:34:48;11.90;92.90
19088;DHT22;9676;50.916;13.352;2023-02-24T02:37:48;11.90;92.60
19088;DHT22;9676;50.916;13.352;2023-02-24T02:40:47;11.80;92.50
19088;DHT22;9676;50.916;13.352;2023-02-24T02:43:44;11.80;92.50
19088;DHT22;9676;50.916;13.352;2023-02-24T02:46:41;11.80;92.80
19088;DHT22;9676;50.916;13.352;2023-02-24T02:49:34;11.80;93.00
19088;DHT22;9676;50.916;13.352;2023-02-24T02:52:32;11.80;93.00
19088;DHT22;9676;50.916;13.352;2023-02-24T02:55:30;11.70;93.40
19088;DHT22;9676;50.916;13.352;2023-02-24T02:58:25;11.70;93.50
19088;DHT22;9676;50.916;13.352;2023-02-24T03:01:19;11.70;93.20
19088;DHT22;9676;50.916;13.352;2023-02-24T03:04:12;11.70;93.30
19088;DHT22;9676;50.916;13.352;2023-02-24T03:07:05;11.70;93.50
19088;DHT22;9676;50.916;13.352;2023-02-24T03:09:59;11.70;93.50
19088;DHT22;9676;50.916;13.352;2023-02-24T03:12:53;11.70;94.30
19088;DHT22;9676;50.916;13.352;2023-02-24T03:15:45;11.60;93.80
19088;DHT22;9676;50.916;13.352;2023-02-24T03:18:38;11.60;93.70
19088;DHT22;9676;50.916;13.352;2023-02-24T03:21:33;11.60;94.00
19088;DHT22;9676;50.916;13.352;2023-02-24T03:24:25;11.60;94.00
19088;DHT22;9676;50.916;13.352;2023-02-24T03:27:25;11.50;93.60
19088;DHT22;9676;50.916;13.352;2023-02-24T03:30:20;11.50;94.60
19088;DHT22;9676;50.916;13.352;2023-02-24T03:33:18;11.50;94.20
19088;DHT22;9676;50.916;13.352;2023-02-24T03:36:11;11.50;94.60
19088;DHT22;9676;50.916;13.352;2023-02-24T03:39:02;11.40;93.80
19088;DHT22;9676;50.916;13.352;2023-02-24T03:42:00;11.40;93.80
19088;DHT22;9676;50.916;13.352;2023-02-24T03:44:55;11.40;94.40
19088;DHT22;9676;50.916;13.352;2023-02-24T03:47:46;11.30;94.40
19088;DHT22;9676;50.916;13.352;2023-02-24T03:50:36;11.30;93.80
19088;DHT22;9676;50.916;13.352;2023-02-24T03:53:46;11.30;93.80
19088;DHT22;9676;50.916;13.352;2023-02-24T03:56:53;11.20;94.10
19088;DHT22;9676;50.916;13.352;2023-02-24T03:59:58;11.20;94.20
19088;DHT22;9676;50.916;13.352;2023-02-24T04:03:20;11.20;94.30
19088;DHT22;9676;50.916;13.352;2023-02-24T04:06:22;11.10;94.20
19088;DHT22;9676;50.916;13.352;2023-02-24T04:09:18;11.10;93.80
19088;DHT22;9676;50.916;13.352;2023-02-24T04:12:26;11.00;94.00
19088;DHT22;9676;50.916;13.352;2023-02-24T04:15:28;11.00;94.10
19088;DHT22;9676;50.916;13.352;2023-02-24T04:18:22;11.00;94.40
19088;DHT22;9676;50.916;13.352;2023-02-24T04:21:16;10.90;94.20
19088;DHT22;9676;50.916;13.352;2023-02-24T04:24:09;10.90;94.20
19088;DHT22;9676;50.916;13.352;2023-02-24T04:27:06;10.80;94.20
19088;DHT22;9676;50.916;13.352;2023-02-24T04:30:02;10.80;94.10
19088;DHT22;9676;50.916;13.352;2023-02-24T04:32:54;10.80;94.00
19088;DHT22;9676;50.916;13.352;2023-02-24T04:35:45;10.70;94.20
19088;DHT22;9676;50.916;13.352;2023-02-24T04:38:39;10.70;94.20
19088;DHT22;9676;50.916;13.352;2023-02-24T04:41:29;10.70;94.10
19088;DHT22;9676;50.916;13.352;2023-02-24T04:44:20;10.70;94.20
19088;DHT22;9676;50.916;13.352;2023-02-24T04:47:10;10.70;94.30
19088;DHT22;9676;50.916;13.352;2023-02-24T04:50:01;10.60;94.30
19088;DHT22;9676;50.916;13.352;2023-02-24T04:52:55;10.60;94.60
19088;DHT22;9676;50.916;13.352;2023-02-24T04:55:47;10.60;94.70
19088;DHT22;9676;50.916;13.352;2023-02-24T04:58:38;10.60;94.60
19088;DHT22;9676;50.916;13.352;2023-02-24T05:01:29;10.60;94.70
19088;DHT22;9676;50.916;13.352;2023-02-24T05:04:19;10.60;94.60
19088;DHT22;9676;50.916;13.352;2023-02-24T05:07:10;10.60;94.50
19088;DHT22;9676;50.916;13.352;2023-02-24T05:10:02;10.60;94.80
19088;DHT22;9676;50.916;13.352;2023-02-24T05:12:52;10.60;94.40
19088;DHT22;9676;50.916;13.352;2023-02-24T05:15:43;10.60;94.40
19088;DHT22;9676;50.916;13.352;2023-02-24T05:18:33;10.60;94.60
19088;DHT22;9676;50.916;13.352;2023-02-24T05:21:24;10.60;94.60
19088;DHT22;9676;50.916;13.352;2023-02-24T05:24:23;10.60;94.70
19088;DHT22;9676;50.916;13.352;2023-02-24T05:27:13;10.60;95.10
19088;DHT22;9676;50.916;13.352;2023-02-24T05:30:05;10.60;94.90
19088;DHT22;9676;50.916;13.352;2023-02-24T05:32:56;10.60;95.10
19088;DHT22;9676;50.916;13.352;2023-02-24T05:35:46;10.60;95.00
19088;DHT22;9676;50.916;13.352;2023-02-24T05:38:35;10.60;94.90
19088;DHT22;9676;50.916;13.352;2023-02-24T05:41:27;10.60;94.80
19088;DHT22;9676;50.916;13.352;2023-02-24T05:44:20;10.50;94.90
19088;DHT22;9676;50.916;13.352;2023-02-24T05:47:12;10.60;94.80
19088;DHT22;9676;50.916;13.352;2023-02-24T05:50:07;10.50;94.50
19088;DHT22;9676;50.916;13.352;2023-02-24T05:52:58;10.50;94.60
19088;DHT22;9676;50.916;13.352;2023-02-24T05:55:50;10.50;94.40
19088;DHT22;9676;50.916;13.352;2023-02-24T05:58:41;10.40;94.40
19088;DHT22;9676;50.916;13.352;2023-02-24T06:01:33;10.40;94.90
19088;DHT22;9676;50.916;13.352;2023-02-24T06:04:24;10.30;94.90
19088;DHT22;9676;50.916;13.352;2023-02-24T06:07:29;10.30;94.50
19088;DHT22;9676;50.916;13.352;2023-02-24T06:10:21;10.30;94.60
19088;DHT22;9676;50.916;13.352;2023-02-24T06:13:10;10.20;94.20
19088;DHT22;9676;50.916;13.352;2023-02-24T06:16:01;10.20;94.30
19088;DHT22;9676;50.916;13.352;2023-02-24T06:18:50;10.10;94.50
19088;DHT22;9676;50.916;13.352;2023-02-24T06:21:41;10.10;94.60
19088;DHT22;9676;50.916;13.352;2023-02-24T06:24:31;10.10;94.40
19088;DHT22;9676;50.916;13.352;2023-02-24T06:27:21;10.00;94.60
19088;DHT22;9676;50.916;13.352;2023-02-24T06:30:13;10.00;94.50
19088;DHT22;9676;50.916;13.352;2023-02-24T06:33:04;10.00;94.80
19088;DHT22;9676;50.916;13.352;2023-02-24T06:35:53;10.00;95.10
19088;DHT22;9676;50.916;13.352;2023-02-24T06:38:43;9.90;95.30
19088;DHT22;9676;50.916;13.352;2023-02-24T06:41:33;9.90;95.40
19088;DHT22;9676;50.916;13.352;2023-02-24T06:44:24;9.90;95.50
19088;DHT22;9676;50.916;13.352;2023-02-24T06:47:14;9.90;95.60
19088;DHT22;9676;50.916;13.352;2023-02-24T06:50:07;9.90;95.60
19088;DHT22;9676;50.916;13.352;2023-02-24T06:52:57;9.90;95.50
19088;DHT22;9676;50.916;13.352;2023-02-24T06:55:47;9.90;95.30
19088;DHT22;9676;50.916;13.352;2023-02-24T06:58:37;9.80;95.30
19088;DHT22;9676;50.916;13.352;2023-02-24T07:01:27;9.80;95.40
19088;DHT22;9676;50.916;13.352;2023-02-24T07:04:16;9.80;95.60
19088;DHT22;9676;50.916;13.352;2023-02-24T07:07:09;9.80;95.90
19088;DHT22;9676;50.916;13.352;2023-02-24T07:10:01;9.80;96.40
19088;DHT22;9676;50.916;13.352;2023-02-24T07:12:50;9.80;96.20
19088;DHT22;9676;50.916;13.352;2023-02-24T07:15:41;9.80;96.30
19088;DHT22;9676;50.916;13.352;2023-02-24T07:18:36;9.80;96.50
19088;DHT22;9676;50.916;13.352;2023-02-24T07:21:29;9.90;96.60
19088;DHT22;9676;50.916;13.352;2023-02-24T07:24:29;9.90;96.30
19088;DHT22;9676;50.916;13.352;2023-02-24T07:27:23;9.90;96.10
19088;DHT22;9676;50.916;13.352;2023-02-24T07:30:15;9.90;95.60
19088;DHT22;9676;50.916;13.352;2023-02-24T07:33:05;9.90;95.50
19088;DHT22;9676;50.916;13.352;2023-02-24T07:35:54;9.90;95.30
19088;DHT22;9676;50.916;13.352;2023-02-24T07:38:44;9.90;95.50
19088;DHT22;9676;50.916;13.352;2023-02-24T07:41:35;9.80;95.30
19088;DHT22;9676;50.916;13.352;2023-02-24T07:44:24;9.80;95.30
19088;DHT22;9676;50.916;13.352;2023-02-24T07:47:16;9.80;95.10
19088;DHT22;9676;50.916;13.352;2023-02-24T07:50:06;9.70;94.90
19088;DHT22;9676;50.916;13.352;2023-02-24T07:53:00;9.70;94.50
19088;DHT22;9676;50.916;13.352;2023-02-24T07:55:51;9.70;94.30
19088;DHT22;9676;50.916;13.352;2023-02-24T07:58:42;9.60;94.30
19088;DHT22;9676;50.916;13.352;2023-02-24T08:01:34;9.60;94.40
19088;DHT22;9676;50.916;13.352;2023-02-24T08:04:27;9.60;94.10
19088;DHT22;9676;50.916;13.352;2023-02-24T08:07:21;9.50;93.90
19088;DHT22;9676;50.916;13.352;2023-02-24T08:10:12;9.50;93.90
19088;DHT22;9676;50.916;13.352;2023-02-24T08:13:11;9.50;94.00
19088;DHT22;9676;50.916;13.352;2023-02-24T08:16:04;9.40;93.90
19088;DHT22;9676;50.916;13.352;2023-02-24T08:18:54;9.40;94.10
19088;DHT22;9676;50.916;13.352;2023-02-24T08:21:45;9.40;93.80
19088;DHT22;9676;50.916;13.352;2023-02-24T08:24:37;9.40;93.90
19088;DHT22;9676;50.916;13.352;2023-02-24T08:27:28;9.40;93.60
19088;DHT22;9676;50.916;13.352;2023-02-24T08:30:17;9.40;93.20
19088;DHT22;9676;50.916;13.352;2023-02-24T08:33:13;9.40;93.10
19088;DHT22;9676;50.916;13.352;2023-02-24T08:36:07;9.40;93.30
19088;DHT22;9676;50.916;13.352;2023-02-24T08:38:56;9.40;93.30
19088;DHT22;9676;50.916;13.352;2023-02-24T08:41:46;9.40;93.40
19088;DHT22;9676;50.916;13.352;2023-02-24T08:44:38;9.40;93.70
19088;DHT22;9676;50.916;13.352;2023-02-24T08:47:29;9.40;93.80
19088;DHT22;9676;50.916;13.352;2023-02-24T08:50:24;9.40;94.10
19088;DHT22;9676;50.916;13.352;2023-02-24T08:53:18;9.40;93.90
19088;DHT22;9676;50.916;13.352;2023-02-24T08:56:09;9.50;93.90
19088;DHT22;9676;50.916;13.352;2023-02-24T08:59:02;9.50;94.00
19088;DHT22;9676;50.916;13.352;2023-02-24T09:01:54;9.50;94.10
19088;DHT22;9676;50.916;13.352;2023-02-24T09:05:06;9.60;94.20
19088;DHT22;9676;50.916;13.352;2023-02-24T09:08:02;9.70;94.30
19088;DHT22;9676;50.916;13.352;2023-02-24T09:10:51;9.70;94.50
19088;DHT22;9676;50.916;13.352;2023-02-24T09:13:43;9.80;95.00
19088;DHT22;9676;50.916;13.352;2023-02-24T09:16:45;9.90;95.20
19088;DHT22;9676;50.916;13.352;2023-02-24T09:19:53;10.00;95.20
19088;DHT22;9676;50.916;13.352;2023-02-24T09:23:01;10.10;95.20
19088;DHT22;9676;50.916;13.352;2023-02-24T09:25:52;10.20;95.10
19088;DHT22;9676;50.916;13.352;2023-02-24T09:28:41;10.30;95.10
19088;DHT22;9676;50.916;13.352;2023-02-24T09:31:41;10.40;94.90
19088;DHT22;9676;50.916;13.352;2023-02-24T09:34:42;10.50;94.70
19088;DHT22;9676;50.916;13.352;2023-02-24T09:37:32;10.60;94.80
19088;DHT22;9676;50.916;13.352;2023-02-24T09:40:22;10.70;95.00
19088;DHT22;9676;50.916;13.352;2023-02-24T09:43:28;10.90;95.10
19088;DHT22;9676;50.916;13.352;2023-02-24T09:46:26;11.00;95.40
19088;DHT22;9676;50.916;13.352;2023-02-24T09:49:17;11.20;96.10
19088;DHT22;9676;50.916;13.352;2023-02-24T09:52:10;11.30;96.10
19088;DHT22;9676;50.916;13.352;2023-02-24T09:55:05;11.50;95.90
19088;DHT22;9676;50.916;13.352;2023-02-24T09:58:22;11.70;95.90
19088;DHT22;9676;50.916;13.352;2023-02-24T10:01:38;11.80;95.30
19088;DHT22;9676;50.916;13.352;2023-02-24T10:04:40;12.10;96.00
19088;DHT22;9676;50.916;13.352;2023-02-24T10:07:42;12.20;95.50
19088;DHT22;9676;50.916;13.352;2023-02-24T10:10:35;12.40;94.90
19088;DHT22;9676;50.916;13.352;2023-02-24T10:13:29;12.50;93.60
19088;DHT22;9676;50.916;13.352;2023-02-24T10:16:22;12.50;92.70
19088;DHT22;9676;50.916;13.352;2023-02-24T10:19:22;12.50;92.30
19088;DHT22;9676;50.916;13.352;2023-02-24T10:22:18;12.50;91.80
19088;DHT22;9676;50.916;13.352;2023-02-24T10:25:39;12.60;91.70
19088;DHT22;9676;50.916;13.352;2023-02-24T10:28:37;12.60;91.60
19088;DHT22;9676;50.916;13.352;2023-02-24T10:31:38;12.60;92.00
19088;DHT22;9676;50.916;13.352;2023-02-24T10:34:34;12.60;92.30
19088;DHT22;9676;50.916;13.352;2023-02-24T10:37:24;12.60;92.30
19088;DHT22;9676;50.916;13.352;2023-02-24T10:40:16;12.70;92.10
19088;DHT22;9676;50.916;13.352;2023-02-24T10:43:17;12.70;91.40
19088;DHT22;9676;50.916;13.352;2023-02-24T10:46:20;12.70;90.60
19088;DHT22;9676;50.916;13.352;2023-02-24T10:49:26;12.70;89.70
19088;DHT22;9676;50.916;13.352;2023-02-24T10:52:16;12.60;89.40
19088;DHT22;9676;50.916;13.352;2023-02-24T10:55:26;12.50;88.70
19088;DHT22;9676;50.916;13.352;2023-02-24T10:58:39;12.40;87.60
19088;DHT22;9676;50.916;13.352;2023-02-24T11:01:37;12.30;87.40
19088;DHT22;9676;50.916;13.352;2023-02-24T11:04:42;12.10;87.40
19088;DHT22;9676;50.916;13.352;2023-02-24T11:08:05;12.10;88.20
19088;DHT22;9676;50.916;13.352;2023-02-24T11:10:57;12.00;88.70
19088;DHT22;9676;50.916;13.352;2023-02-24T11:13:54;12.00;90.00
19088;DHT22;9676;50.916;13.352;2023-02-24T11:17:20;12.00;90.20
19088;DHT22;9676;50.916;13.352;2023-02-24T11:20:21;12.00;90.10
19088;DHT22;9676;50.916;13.352;2023-02-24T11:23:32;12.10;90.50
19088;DHT22;9676;50.916;13.352;2023-02-24T11:26:24;12.10;90.70
19088;DHT22;9676;50.916;13.352;2023-02-24T11:29:34;12.20;90.70
19088;DHT22;9676;50.916;13.352;2023-02-24T11:32:42;12.30;90.80
19088;DHT22;9676;50.916;13.352;2023-02-24T11:35:45;12.40;91.80
19088;DHT22;9676;50.916;13.352;2023-02-24T11:38:41;12.50;93.30
19088;DHT22;9676;50.916;13.352;2023-02-24T11:41:36;12.70;93.60
19088;DHT22;9676;50.916;13.352;2023-02-24T11:44:31;13.00;93.80
19088;DHT22;9676;50.916;13.352;2023-02-24T11:47:30;13.20;93.60
19088;DHT22;9676;50.916;13.352;2023-02-24T11:50:38;13.40;93.70
19088;DHT22;9676;50.916;13.352;2023-02-24T11:53:34;13.70;93.50
19088;DHT22;9676;50.916;13.352;2023-02-24T11:56:27;13.90;94.10
19088;DHT22;9676;50.916;13.352;2023-02-24T11:59:21;14.10;93.00
19088;DHT22;9676;50.916;13.352;2023-02-24T12:02:23;14.30;91.80
19088;DHT22;9676;50.916;13.352;2023-02-24T12:05:24;14.40;90.50
19088;DHT22;9676;50.916;13.352;2023-02-24T12:08:23;14.50;90.10
19088;DHT22;9676;50.916;13.352;2023-02-24T12:11:22;14.50;88.00
19088;DHT22;9676;50.916;13.352;2023-02-24T12:14:29;14.40;86.60
19088;DHT22;9676;50.916;13.352;2023-02-24T12:17:29;14.40;84.80
19088;DHT22;9676;50.916;13.352;2023-02-24T12:20:26;14.30;84.50
19088;DHT22;9676;50.916;13.352;2023-02-24T12:23:30;14.10;83.40
19088;DHT22;9676;50.916;13.352;2023-02-24T12:26:23;13.90;82.60
19088;DHT22;9676;50.916;13.352;2023-02-24T12:29:29;13.80;82.60
19088;DHT22;9676;50.916;13.352;2023-02-24T12:32:39;13.70;82.10
19088;DHT22;9676;50.916;13.352;2023-02-24T12:35:43;13.50;82.40
19088;DHT22;9676;50.916;13.352;2023-02-24T12:38:47;13.40;83.10
19088;DHT22;9676;50.916;13.352;2023-02-24T12:41:54;13.40;83.80
19088;DHT22;9676;50.916;13.352;2023-02-24T12:44:52;13.30;83.80
19088;DHT22;9676;50.916;13.352;2023-02-24T12:47:56;13.30;84.20
19088;DHT22;9676;50.916;13.352;2023-02-24T12:50:58;13.20;83.80
19088;DHT22;9676;50.916;13.352;2023-02-24T12:53:58;13.20;84.10
19088;DHT22;9676;50.916;13.352;2023-02-24T12:56:56;13.20;84.00
19088;DHT22;9676;50.916;13.352;2023-02-24T12:59:48;13.10;83.60
19088;DHT22;9676;50.916;13.352;2023-02-24T13:02:46;13.10;83.90
19088;DHT22;9676;50.916;13.352;2023-02-24T13:05:45;13.10;83.10
19088;DHT22;9676;50.916;13.352;2023-02-24T13:08:50;13.00;82.90
19088;DHT22;9676;50.916;13.352;2023-02-24T13:11:47;13.00;82.00
19088;DHT22;9676;50.916;13.352;2023-02-24T13:14:41;12.90;81.40
19088;DHT22;9676;50.916;13.352;2023-02-24T13:17:31;12.80;81.30
19088;DHT22;9676;50.916;13.352;2023-02-24T13:20:29;12.70;81.50
19088;DHT22;9676;50.916;13.352;2023-02-24T13:23:21;12.60;81.30
19088;DHT22;9676;50.916;13.352;2023-02-24T13:26:21;12.50;81.80
19088;DHT22;9676;50.916;13.352;2023-02-24T13:29:12;12.50;82.00
19088;DHT22;9676;50.916;13.352;2023-02-24T13:32:02;12.40;82.50
19088;DHT22;9676;50.916;13.352;2023-02-24T13:34:52;12.30;82.60
19088;DHT22;9676;50.916;13.352;2023-02-24T13:37:43;12.30;82.60
19088;DHT22;9676;50.916;13.352;2023-02-24T13:40:34;12.20;82.50
19088;DHT22;9676;50.916;13.352;2023-02-24T13:43:27;12.20;82.70
19088;DHT22;9676;50.916;13.352;2023-02-24T13:46:18;12.20;82.70
19088;DHT22;9676;50.916;13.352;2023-02-24T13:49:29;12.10;82.70
19088;DHT22;9676;50.916;13.352;2023-02-24T13:52:32;12.10;82.50
19088;DHT22;9676;50.916;13.352;2023-02-24T13:55:37;12.10;82.60
19088;DHT22;9676;50.916;13.352;2023-02-24T13:58:43;12.00;82.50
19088;DHT22;9676;50.916;13.352;2023-02-24T14:01:47;12.00;82.40
19088;DHT22;9676;50.916;13.352;2023-02-24T14:04:44;12.00;82.60
19088;DHT22;9676;50.916;13.352;2023-02-24T14:07:36;11.90;82.70
19088;DHT22;9676;50.916;13.352;2023-02-24T14:10:29;11.90;82.80
19088;DHT22;9676;50.916;13.352;2023-02-24T14:13:23;11.90;82.90
19088;DHT22;9676;50.916;13.352;2023-02-24T14:16:18;11.90;82.70
19088;DHT22;9676;50.916;13.352;2023-02-24T14:19:14;11.80;82.50
19088;DHT22;9676;50.916;13.352;2023-02-24T14:22:04;11.80;82.40
19088;DHT22;9676;50.916;13.352;2023-02-24T14:25:00;11.70;82.10
19088;DHT22;9676;50.916;13.352;2023-02-24T14:27:51;11.70;81.40
19088;DHT22;9676;50.916;13.352;2023-02-24T14:30:42;11.60;81.20
19088;DHT22;9676;50.916;13.352;2023-02-24T14:33:34;11.50;80.90
19088;DHT22;9676;50.916;13.352;2023-02-24T14:36:27;11.40;80.70
19088;DHT22;9676;50.916;13.352;2023-02-24T14:39:20;11.30;80.60
19088;DHT22;9676;50.916;13.352;2023-02-24T14:42:13;11.30;80.60
19088;DHT22;9676;50.916;13.352;2023-02-24T14:45:16;11.20;81.40
19088;DHT22;9676;50.916;13.352;2023-02-24T14:48:21;11.10;80.60
19088;DHT22;9676;50.916;13.352;2023-02-24T14:51:31;11.10;80.80
19088;DHT22;9676;50.916;13.352;2023-02-24T14:54:31;11.10;80.90
19088;DHT22;9676;50.916;13.352;2023-02-24T14:57:28;11.10;81.40
19088;DHT22;9676;50.916;13.352;2023-02-24T15:00:24;11.10;81.60
19088;DHT22;9676;50.916;13.352;2023-02-24T15:03:17;11.10;81.60
19088;DHT22;9676;50.916;13.352;2023-02-24T15:06:17;11.10;81.60
19088;DHT22;9676;50.916;13.352;2023-02-24T15:09:12;11.10;81.40
19088;DHT22;9676;50.916;13.352;2023-02-24T15:12:10;11.10;81.40
19088;DHT22;9676;50.916;13.352;2023-02-24T15:15:03;11.10;81.30
19088;DHT22;9676;50.916;13.352;2023-02-24T15:17:57;11.10;81.40
19088;DHT22;9676;50.916;13.352;2023-02-24T15:20:59;11.10;81.20
19088;DHT22;9676;50.916;13.352;2023-02-24T15:23:58;11.10;80.70
19088;DHT22;9676;50.916;13.352;2023-02-24T15:26:53;11.10;80.60
19088;DHT22;9676;50.916;13.352;2023-02-24T15:29:44;11.10;80.70
19088;DHT22;9676;50.916;13.352;2023-02-24T15:32:46;11.10;80.70
19088;DHT22;9676;50.916;13.352;2023-02-24T15:35:38;11.10;80.50
19088;DHT22;9676;50.916;13.352;2023-02-24T15:38:37;11.10;80.30
19088;DHT22;9676;50.916;13.352;2023-02-24T15:41:38;11.00;80.10
19088;DHT22;9676;50.916;13.352;2023-02-24T15:44:30;11.00;79.70
19088;DHT22;9676;50.916;13.352;2023-02-24T15:47:23;11.00;79.90
19088;DHT22;9676;50.916;13.352;2023-02-24T15:50:13;11.00;79.80
19088;DHT22;9676;50.916;13.352;2023-02-24T15:53:03;10.90;79.90
19088;DHT22;9676;50.916;13.352;2023-02-24T15:55:55;10.90;80.00
19088;DHT22;9676;50.916;13.352;2023-02-24T15:58:46;10.90;80.10
19088;DHT22;9676;50.916;13.352;2023-02-24T16:01:35;10.80;80.00
19088;DHT22;9676;50.916;13.352;2023-02-24T16:04:25;10.80;80.10
19088;DHT22;9676;50.916;13.352;2023-02-24T16:07:16;10.70;80.10
19088;DHT22;9676;50.916;13.352;2023-02-24T16:10:15;10.70;80.20
19088;DHT22;9676;50.916;13.352;2023-02-24T16:13:08;10.60;80.30
19088;DHT22;9676;50.916;13.352;2023-02-24T16:16:06;10.60;80.00
19088;DHT22;9676;50.916;13.352;2023-02-24T16:19:00;10.50;79.80
19088;DHT22;9676;50.916;13.352;2023-02-24T16:21:49;10.40;79.30
19088;DHT22;9676;50.916;13.352;2023-02-24T16:24:38;10.30;79.30
19088;DHT22;9676;50.916;13.352;2023-02-24T16:27:28;10.20;79.30
19088;DHT22;9676;50.916;13.352;2023-02-24T16:30:18;10.00;79.30
19088;DHT22;9676;50.916;13.352;2023-02-24T16:33:11;9.90;80.60
19088;DHT22;9676;50.916;13.352;2023-02-24T16:36:02;9.80;80.90
19088;DHT22;9676;50.916;13.352;2023-02-24T16:38:51;9.70;80.70
19088;DHT22;9676;50.916;13.352;2023-02-24T16:41:41;9.60;80.90
19088;DHT22;9676;50.916;13.352;2023-02-24T16:44:30;9.50;81.40
19088;DHT22;9676;50.916;13.352;2023-02-24T16:47:22;9.40;81.50
19088;DHT22;9676;50.916;13.352;2023-02-24T16:50:19;9.40;82.20
19088;DHT22;9676;50.916;13.352;2023-02-24T16:53:14;9.30;83.60
19088;DHT22;9676;50.916;13.352;2023-02-24T16:56:06;9.30;83.30
19088;DHT22;9676;50.916;13.352;2023-02-24T16:58:55;9.20;82.90
19088;DHT22;9676;50.916;13.352;2023-02-24T17:01:45;9.10;83.70
19088;DHT22;9676;50.916;13.352;2023-02-24T17:04:34;9.10;83.40
19088;DHT22;9676;50.916;13.352;2023-02-24T17:07:25;9.00;83.40
19088;DHT22;9676;50.916;13.352;2023-02-24T17:10:15;9.00;84.10
19088;DHT22;9676;50.916;13.352;2023-02-24T17:13:05;9.00;84.10
19088;DHT22;9676;50.916;13.352;2023-02-24T17:15:55;8.90;84.10
19088;DHT22;9676;50.916;13.352;2023-02-24T17:18:44;8.90;84.20
19088;DHT22;9676;50.916;13.352;2023-02-24T17:21:40;8.90;84.50
19088;DHT22;9676;50.916;13.352;2023-02-24T17:24:32;8.80;84.50
19088;DHT22;9676;50.916;13.352;2023-02-24T17:27:21;8.80;85.30
19088;DHT22;9676;50.916;13.352;2023-02-24T17:30:12;8.70;85.10
19088;DHT22;9676;50.916;13.352;2023-02-24T17:33:03;8.70;85.80
19088;DHT22;9676;50.916;13.352;2023-02-24T17:35:52;8.70;85.50
19088;DHT22;9676;50.916;13.352;2023-02-24T17:38:41;8.60;85.50
19088;DHT22;9676;50.916;13.352;2023-02-24T17:41:32;8.60;85.30
19088;DHT22;9676;50.916;13.352;2023-02-24T17:44:22;8.60;85.90
19088;DHT22;9676;50.916;13.352;2023-02-24T17:47:11;8.50;86.20
19088;DHT22;9676;50.916;13.352;2023-02-24T17:50:01;8.50;85.70
19088;DHT22;9676;50.916;13.352;2023-02-24T17:52:51;8.50;85.60
19088;DHT22;9676;50.916;13.352;2023-02-24T17:55:41;8.40;85.20
19088;DHT22;9676;50.916;13.352;2023-02-24T17:58:50;8.40;85.20
19088;DHT22;9676;50.916;13.352;2023-02-24T18:01:42;8.30;85.60
19088;DHT22;9676;50.916;13.352;2023-02-24T18:04:31;8.20;85.40
19088;DHT22;9676;50.916;13.352;2023-02-24T18:07:20;8.20;85.60
19088;DHT22;9676;50.916;13.352;2023-02-24T18:10:11;8.20;85.50
19088;DHT22;9676;50.916;13.352;2023-02-24T18:13:01;8.10;85.40
19088;DHT22;9676;50.916;13.352;2023-02-24T18:15:52;8.10;85.60
19088;DHT22;9676;50.916;13.352;2023-02-24T18:18:41;8.10;86.40
19088;DHT22;9676;50.916;13.352;2023-02-24T18:21:30;8.00;85.90
19088;DHT22;9676;50.916;13.352;2023-02-24T18:24:20;8.00;85.90
19088;DHT22;9676;50.916;13.352;2023-02-24T18:27:09;8.00;85.90
19088;DHT22;9676;50.916;13.352;2023-02-24T18:29:59;7.90;85.90